Clinton, New York
Current Conditions -  °F | °C
As of 7:53 AM on Wednesday 22 Oct 2014 (Local Time) from KRME Reporting Station
Overcast Overcast  
Wind Chill: 45°   Ceiling: 2700
Heat Index: 48°   Visibility: 10mi
Dew Point: 43°   Wind: 7mph
Humidity: 83%   Direction: 20°NNE
Pressure: 30.12"   Gusts: NA
Location:  43.05°N, 75.38°W
Report Text: KRME 221153Z 02006KT 10SM OVC027 09/06 A3012 RMK AO2 SLP199 T00890061 10094 20078 51020
Loading
Personal Weather Stations






























Interactive Weather Map
Tropical Storm Tracking
New forecast layout! Learn more

10-Day Weather Forecast

Advertisements
Track Severe Weather on mobile